Time;durP1;ratioP1;P1;durP2;ratioP2;P2;SDS_P1;SDS_P2;PMS_P1;PMS_P2;Temp;Humidity;BMP_temperature;BMP_pressure;BME280_temperature;BME280_humidity;BME280_pressure;Samples;Min_cycle;Max_cycle;Signal;HPM_P1;HPM_P2
2023/11/16 00:01:10;;;;;;;17.60;8.50;;;;;;;9.37;86.00;98386.98;78235;1300;3051979;-68
2023/11/16 00:03:37;;;;;;;15.50;8.30;;;;;;;9.10;86.95;98388.43;79462;1298;3019265;-68
2023/11/16 00:06:04;;;;;;;18.80;9.20;;;;;;;8.93;87.60;98388.00;79477;1295;3011953;-69
2023/11/16 00:08:34;;;;;;;21.30;10.80;;;;;;;8.84;87.86;98382.39;78263;1301;3026165;-68
2023/11/16 00:11:02;;;;;;;14.30;7.50;;;;;;;8.74;88.18;98389.70;79449;1300;3012496;-68
2023/11/16 00:13:32;;;;;;;13.10;8.20;;;;;;;9.15;87.53;98385.98;78906;1300;3011638;-68
2023/11/16 00:15:58;;;;;;;19.80;9.30;;;;;;;9.61;85.99;98383.20;79430;1300;3013746;-68
2023/11/16 00:18:27;;;;;;;18.30;10.30;;;;;;;9.72;84.67;98382.88;79406;1300;3012875;-68
2023/11/16 00:20:56;;;;;;;20.10;10.40;;;;;;;9.47;84.99;98384.67;78288;1299;3068846;-68
2023/11/16 00:23:23;;;;;;;20.40;10.80;;;;;;;9.39;85.21;98398.55;79460;1298;3013351;-68
2023/11/16 00:25:49;;;;;;;19.90;11.80;;;;;;;9.13;85.80;98404.06;79696;1300;3011586;-67
2023/11/16 00:28:18;;;;;;;20.30;9.10;;;;;;;8.90;86.96;98401.38;78203;1300;3052951;-68
2023/11/16 00:30:44;;;;;;;21.70;9.60;;;;;;;9.31;86.88;98401.23;79575;1300;3018946;-67
2023/11/16 00:33:11;;;;;;;19.90;9.00;;;;;;;9.78;84.84;98408.66;79447;1299;3012631;-67
2023/11/16 00:35:40;;;;;;;19.90;9.80;;;;;;;9.61;84.63;98414.44;78152;1301;3027206;-67
2023/11/16 00:38:07;;;;;;;26.90;12.80;;;;;;;9.57;84.49;98409.00;79569;1295;3013525;-67
2023/11/16 00:40:34;;;;;;;21.60;11.90;;;;;;;9.36;85.00;98411.74;79470;1295;3011753;-69
2023/11/16 00:43:02;;;;;;;25.00;13.40;;;;;;;9.08;86.01;98406.34;78334;1295;3052651;-67
2023/11/16 00:45:28;;;;;;;25.10;13.80;;;;;;;8.89;86.98;98407.54;79503;1295;3013721;-68
2023/11/16 00:47:55;;;;;;;24.30;10.20;;;;;;;8.81;87.89;98405.80;79519;1298;3013707;-67
2023/11/16 00:50:23;;;;;;;20.30;8.70;;;;;;;9.27;87.02;98407.41;78235;1295;3025007;-68
2023/11/16 00:52:50;;;;;;;20.20;9.70;;;;;;;9.92;84.99;98398.69;79426;1298;3013551;-69
2023/11/16 00:55:17;;;;;;;18.70;9.40;;;;;;;9.96;83.63;98394.02;79613;1295;3011608;-68
2023/11/16 00:57:47;;;;;;;19.90;9.00;;;;;;;9.72;83.37;98395.83;78456;1296;3051815;-68
2023/11/16 01:00:15;;;;;;;18.10;8.40;;;;;;;9.30;84.91;98396.80;79587;1295;3013073;-68
2023/11/16 01:02:48;;;;;;;14.50;8.40;;;;;;;9.15;84.98;98396.75;79124;1300;3011680;-68
2023/11/16 01:05:17;;;;;;;14.60;7.00;;;;;;;8.88;86.29;98398.19;79567;1300;3011710;-67
2023/11/16 01:07:45;;;;;;;14.60;8.20;;;;;;;9.31;86.55;98398.21;78246;1296;3068250;-68
2023/11/16 01:10:17;;;;;;;13.30;8.00;;;;;;;9.56;84.79;98396.29;79640;1301;3013295;-69
2023/11/16 01:12:45;;;;;;;17.90;9.00;;;;;;;9.38;85.12;98404.79;78247;1301;3048981;-69
2023/11/16 01:15:14;;;;;;;14.60;8.30;;;;;;;9.24;85.61;98402.64;79552;1296;3018966;-71
2023/11/16 01:17:42;;;;;;;17.60;9.60;;;;;;;8.95;86.32;98396.97;79574;1295;3011685;-68
2023/11/16 01:20:18;;;;;;;17.00;8.90;;;;;;;8.71;87.26;98394.69;78571;1298;3052316;-72
2023/11/16 01:23:00;;;;;;;13.60;8.00;;;;;;;8.63;88.04;98397.14;78293;1296;3068572;-68
2023/11/16 01:25:30;;;;;;;21.80;8.70;;;;;;;8.98;88.25;98398.33;78308;1301;3051248;-68
2023/11/16 01:27:57;;;;;;;16.80;8.60;;;;;;;9.22;87.37;98404.12;79645;1296;3013438;-69
2023/11/16 01:30:26;;;;;;;15.40;8.50;;;;;;;9.36;86.60;98406.46;79158;1295;3011616;-67
2023/11/16 01:32:53;;;;;;;18.40;9.70;;;;;;;9.24;86.61;98410.84;79680;1300;3015000;-67
2023/11/16 01:35:21;;;;;;;17.20;8.60;;;;;;;9.04;86.67;98409.31;79612;1295;3013216;-67
2023/11/16 01:37:49;;;;;;;14.70;8.70;;;;;;;8.95;86.52;98410.83;78343;1301;3052321;-67
2023/11/16 01:40:16;;;;;;;11.80;7.20;;;;;;;8.73;87.40;98410.40;79515;1301;3013488;-67
2023/11/16 01:42:43;;;;;;;12.80;7.50;;;;;;;9.11;88.01;98411.59;79499;1295;3011633;-67
2023/11/16 01:45:32;;;;;;;13.70;7.30;;;;;;;9.61;85.51;98408.45;78354;1296;3048286;-67
2023/11/16 01:48:06;;;;;;;15.10;8.50;;;;;;;9.20;85.78;98414.41;78188;1301;3053170;-67
2023/11/16 01:50:37;;;;;;;14.10;7.50;;;;;;;8.91;87.29;98415.45;78924;1296;3012092;-68
2023/11/16 01:53:09;;;;;;;16.40;8.40;;;;;;;8.61;88.13;98422.19;79437;1299;3013133;-67
2023/11/16 01:55:40;;;;;;;13.30;8.10;;;;;;;8.46;89.23;98428.98;78293;1295;3051914;-67
2023/11/16 01:58:07;;;;;;;9.90;6.20;;;;;;;8.53;88.81;98428.50;79514;1299;3013494;-67
2023/11/16 02:00:36;;;;;;;13.20;7.30;;;;;;;9.00;88.04;98433.80;79085;1296;3011586;-67
2023/11/16 02:03:05;;;;;;;13.20;8.10;;;;;;;9.26;86.84;98434.10;79624;1295;3014486;-67
2023/11/16 02:05:35;;;;;;;11.60;7.00;;;;;;;9.27;85.97;98435.09;79131;1296;3013157;-68
2023/11/16 02:08:04;;;;;;;18.90;8.30;;;;;;;8.84;87.19;98432.87;79518;1296;3012851;-68
2023/11/16 02:10:33;;;;;;;15.90;7.80;;;;;;;8.77;87.79;98430.71;79012;1295;3013376;-68
2023/11/16 02:13:00;;;;;;;18.60;8.90;;;;;;;8.59;88.06;98432.30;79588;1299;3013209;-67
2023/11/16 02:15:31;;;;;;;11.20;6.00;;;;;;;8.31;89.84;98428.27;79581;1300;3011671;-68
2023/11/16 02:17:59;;;;;;;12.30;7.30;;;;;;;9.05;88.82;98425.27;78416;1301;3051611;-69
2023/11/16 02:20:26;;;;;;;12.30;6.90;;;;;;;9.40;86.51;98421.41;79623;1295;3018787;-68
2023/11/16 02:22:54;;;;;;;12.40;7.30;;;;;;;9.59;85.65;98428.20;79537;1295;3013489;-68
2023/11/16 02:25:22;;;;;;;15.10;8.80;;;;;;;9.36;85.54;98436.57;78222;1295;3049331;-68
2023/11/16 02:27:49;;;;;;;17.20;8.20;;;;;;;9.04;86.17;98431.80;79659;1298;3013006;-68
2023/11/16 02:30:16;;;;;;;13.80;8.70;;;;;;;8.77;87.01;98426.04;79570;1301;3013149;-68
2023/11/16 02:32:44;;;;;;;15.70;7.10;;;;;;;8.49;88.39;98428.48;78275;1300;3051918;-68
2023/11/16 02:35:12;;;;;;;14.60;8.10;;;;;;;8.80;89.14;98429.65;79558;1300;3015413;-68
2023/11/16 02:37:38;;;;;;;13.20;8.50;;;;;;;9.27;86.87;98435.45;79556;1295;3013999;-68
2023/11/16 02:40:09;;;;;;;14.70;8.50;;;;;;;9.28;86.18;98433.08;78329;1301;3050440;-69
2023/11/16 02:42:36;;;;;;;22.20;9.10;;;;;;;9.12;86.39;98435.98;79610;1298;3011635;-68
2023/11/16 02:45:06;;;;;;;16.20;8.70;;;;;;;8.78;87.10;98433.58;79006;1300;3011593;-69
2023/11/16 02:47:34;;;;;;;16.00;8.50;;;;;;;8.70;87.23;98427.35;79581;1298;3013082;-68
2023/11/16 02:50:03;;;;;;;14.00;7.80;;;;;;;8.62;87.86;98427.05;79052;1302;3011740;-68
2023/11/16 02:52:30;;;;;;;13.80;7.80;;;;;;;9.05;87.40;98423.20;79589;1295;3012708;-68
2023/11/16 02:54:57;;;;;;;13.60;8.40;;;;;;;9.19;86.78;98424.14;79539;1295;3012959;-68
2023/11/16 02:57:29;;;;;;;15.20;8.70;;;;;;;8.96;87.71;98424.52;78607;1299;3048781;-68
2023/11/16 02:59:55;;;;;;;16.40;8.60;;;;;;;8.84;88.35;98428.32;79615;1301;3011643;-67
2023/11/16 03:02:23;;;;;;;16.40;8.80;;;;;;;8.69;88.67;98430.94;78490;1295;3027157;-67
2023/11/16 03:04:50;;;;;;;16.70;9.30;;;;;;;8.47;89.47;98430.48;79460;1295;3013611;-68
2023/11/16 03:07:18;;;;;;;13.20;6.90;;;;;;;8.45;89.36;98432.84;79541;1301;3011616;-68
2023/11/16 03:09:46;;;;;;;16.60;8.80;;;;;;;8.89;89.09;98432.14;78339;1301;3049675;-68
2023/11/16 03:12:13;;;;;;;14.40;9.20;;;;;;;9.49;86.48;98432.25;79581;1298;3012973;-68
2023/11/16 03:14:40;;;;;;;15.80;9.20;;;;;;;9.50;85.33;98435.17;79657;1300;3011873;-68
2023/11/16 03:17:10;;;;;;;14.80;8.50;;;;;;;9.25;85.87;98438.92;78271;1298;3026598;-68
2023/11/16 03:19:41;;;;;;;13.20;8.50;;;;;;;8.96;86.64;98438.66;79662;1295;3014303;-68
2023/11/16 03:22:10;;;;;;;18.10;9.60;;;;;;;8.73;87.20;98439.21;78383;1295;3051510;-68
2023/11/16 03:24:37;;;;;;;13.90;7.50;;;;;;;8.64;87.84;98440.90;79475;1295;3013585;-68
2023/11/16 03:27:04;;;;;;;15.30;8.50;;;;;;;9.13;87.56;98445.30;79631;1295;3011610;-68
2023/11/16 03:29:34;;;;;;;14.60;8.70;;;;;;;9.53;85.49;98449.46;78413;1298;3049569;-68
2023/11/16 03:32:01;;;;;;;16.20;10.00;;;;;;;9.56;84.77;98451.36;79586;1296;3013369;-68
2023/11/16 03:34:31;;;;;;;16.60;9.50;;;;;;;9.39;84.78;98452.02;78261;1296;3025453;-68
2023/11/16 03:36:58;;;;;;;15.10;9.50;;;;;;;9.00;85.87;98447.46;79708;1298;3018584;-69
2023/11/16 03:39:25;;;;;;;17.30;10.10;;;;;;;8.70;87.06;98446.57;79481;1295;3011967;-68
2023/11/16 03:41:54;;;;;;;12.50;7.90;;;;;;;8.56;88.29;98445.59;78508;1296;3049366;-68
2023/11/16 03:44:21;;;;;;;13.20;8.40;;;;;;;9.01;87.72;98448.80;79558;1296;3013191;-68
2023/11/16 03:46:48;;;;;;;12.60;8.90;;;;;;;9.27;86.19;98449.05;79554;1296;3013459;-68
2023/11/16 03:49:17;;;;;;;19.60;9.60;;;;;;;9.26;85.94;98455.45;78401;1301;3052138;-68
2023/11/16 03:51:44;;;;;;;19.30;10.40;;;;;;;8.90;86.55;98456.52;79610;1296;3012697;-68
2023/11/16 03:54:12;;;;;;;20.10;11.20;;;;;;;8.63;87.68;98454.24;79572;1300;3011522;-69
2023/11/16 03:56:39;;;;;;;18.30;12.30;;;;;;;8.44;88.61;98453.04;78454;1298;3047883;-68
2023/11/16 03:59:06;;;;;;;16.30;9.20;;;;;;;8.32;89.11;98454.85;79624;1296;3020575;-68
2023/11/16 04:01:35;;;;;;;16.20;9.70;;;;;;;8.54;89.96;98456.02;79863;1296;3012065;-69
2023/11/16 04:04:10;;;;;;;17.10;9.40;;;;;;;9.14;88.08;98458.52;78476;1301;3051583;-69
2023/11/16 04:06:40;;;;;;;15.90;9.80;;;;;;;9.24;86.95;98461.16;78556;1298;3069715;-69
2023/11/16 04:09:07;;;;;;;15.90;10.20;;;;;;;8.87;87.68;98463.39;79670;1299;3015557;-68
2023/11/16 04:11:34;;;;;;;19.00;9.90;;;;;;;8.66;88.20;98461.84;79607;1297;3012723;-67
2023/11/16 04:14:02;;;;;;;19.30;11.90;;;;;;;8.49;88.50;98454.78;78349;1298;3027743;-69
2023/11/16 04:16:28;;;;;;;18.10;9.00;;;;;;;8.16;90.87;98453.69;79592;1301;3013629;-68
2023/11/16 04:18:56;;;;;;;20.00;10.50;;;;;;;8.80;90.06;98455.96;79554;1300;3011760;-70
2023/11/16 04:21:25;;;;;;;17.50;10.40;;;;;;;8.95;88.12;98457.39;78388;1300;3069854;-70
2023/11/16 04:23:56;;;;;;;22.40;10.40;;;;;;;9.03;87.70;98453.52;79446;1296;3013580;-68
2023/11/16 04:26:29;;;;;;;19.90;10.70;;;;;;;8.91;87.43;98455.60;78224;1300;3048732;-67
2023/11/16 04:28:57;;;;;;;21.10;11.40;;;;;;;8.57;88.51;98456.71;79456;1295;3011438;-68
2023/11/16 04:31:25;;;;;;;19.90;12.40;;;;;;;8.21;90.29;98457.54;78454;1300;3050387;-67
2023/11/16 04:33:51;;;;;;;17.50;10.20;;;;;;;7.99;91.52;98459.86;79444;1301;3013654;-67
2023/11/16 04:36:18;;;;;;;20.60;11.40;;;;;;;8.29;91.39;98464.89;79505;1301;3012922;-68
2023/11/16 04:38:47;;;;;;;22.30;12.40;;;;;;;8.57;90.22;98466.48;78151;1300;3051057;-68
2023/11/16 04:41:13;;;;;;;18.90;12.30;;;;;;;8.66;89.53;98471.10;79551;1298;3012901;-68
2023/11/16 04:43:45;;;;;;;26.30;13.60;;;;;;;8.52;89.51;98474.34;79392;1301;3011987;-68
2023/11/16 04:46:13;;;;;;;21.80;13.40;;;;;;;8.38;89.30;98475.58;78239;1296;3049419;-68
2023/11/16 04:48:43;;;;;;;29.00;16.30;;;;;;;8.15;89.84;98477.48;79449;1299;3018615;-65
2023/11/16 04:51:17;;;;;;;20.40;12.30;;;;;;;7.92;91.15;98482.65;78948;1301;3013533;-67
2023/11/16 04:53:44;;;;;;;22.70;12.30;;;;;;;8.25;90.85;98483.42;79514;1301;3013579;-68
2023/11/16 04:56:13;;;;;;;23.10;12.40;;;;;;;8.35;90.01;98485.70;78292;1295;3052573;-67
2023/11/16 04:58:43;;;;;;;22.80;12.60;;;;;;;8.26;90.58;98485.63;79509;1297;3012966;-67
2023/11/16 05:01:15;;;;;;;27.40;15.30;;;;;;;8.05;91.46;98489.65;78289;1300;3052145;-67
2023/11/16 05:03:44;;;;;;;27.30;16.20;;;;;;;7.94;92.31;98494.01;79478;1300;3012244;-67
2023/11/16 05:06:13;;;;;;;28.50;14.20;;;;;;;7.81;92.83;98494.50;78344;1300;3050604;-67
2023/11/16 05:08:40;;;;;;;21.50;11.60;;;;;;;7.91;92.26;98502.56;79530;1298;3013622;-67
2023/11/16 05:11:07;;;;;;;17.70;11.50;;;;;;;8.33;91.66;98500.38;79572;1296;3011397;-67
2023/11/16 05:13:35;;;;;;;18.60;11.40;;;;;;;8.45;90.11;98493.29;78290;1295;3057242;-66
2023/11/16 05:16:03;;;;;;;22.30;12.40;;;;;;;8.55;89.81;98495.75;79682;1300;3013396;-67
2023/11/16 05:18:30;;;;;;;19.70;11.80;;;;;;;8.26;90.56;98503.43;79576;1296;3013363;-67
2023/11/16 05:21:00;;;;;;;20.70;11.70;;;;;;;7.99;91.73;98514.41;78279;1300;3052705;-68
2023/11/16 05:23:27;;;;;;;17.40;9.90;;;;;;;7.88;92.93;98514.13;79655;1301;3011546;-68
2023/11/16 05:25:57;;;;;;;17.90;11.20;;;;;;;8.28;91.86;98511.13;79114;1296;3011409;-68
2023/11/16 05:28:23;;;;;;;15.00;10.20;;;;;;;8.62;90.22;98508.59;79635;1301;3013194;-69
2023/11/16 05:30:50;;;;;;;24.20;12.60;;;;;;;8.53;89.42;98516.29;79583;1295;3013943;-67
2023/11/16 05:33:19;;;;;;;22.60;12.00;;;;;;;8.25;90.61;98518.30;78392;1295;3028694;-67
2023/11/16 05:35:48;;;;;;;21.90;12.40;;;;;;;7.91;92.22;98525.76;79611;1308;3013202;-68
2023/11/16 05:38:17;;;;;;;20.40;11.80;;;;;;;7.70;93.73;98528.48;79027;1298;3011727;-67
2023/11/16 05:40:44;;;;;;;17.20;9.40;;;;;;;7.55;94.83;98527.33;79644;1298;3013157;-67
2023/11/16 05:43:12;;;;;;;19.50;10.40;;;;;;;8.00;94.51;98527.11;79708;1300;3011552;-67
2023/11/16 05:45:40;;;;;;;18.10;10.20;;;;;;;8.56;91.13;98520.80;78390;1295;3055568;-68
2023/11/16 05:48:08;;;;;;;18.20;10.20;;;;;;;8.64;90.08;98523.81;79727;1295;3013085;-68
2023/11/16 05:50:37;;;;;;;20.20;11.10;;;;;;;8.42;90.09;98527.11;79658;1301;3011550;-67
2023/11/16 05:53:06;;;;;;;19.70;11.80;;;;;;;8.10;91.46;98531.31;78340;1298;3051305;-67
2023/11/16 05:55:34;;;;;;;20.30;11.80;;;;;;;7.88;92.74;98534.86;79669;1297;3013175;-67
2023/11/16 05:58:00;;;;;;;15.00;8.50;;;;;;;7.76;93.71;98532.49;79539;1295;3013026;-68
2023/11/16 06:00:29;;;;;;;19.30;10.50;;;;;;;8.30;92.62;98531.77;78340;1300;3057246;-68
2023/11/16 06:02:56;;;;;;;22.40;12.30;;;;;;;8.67;89.78;98528.84;79698;1296;3013226;-68
2023/11/16 06:05:24;;;;;;;22.90;13.50;;;;;;;8.78;89.27;98534.04;79594;1297;3012779;-68
2023/11/16 06:07:52;;;;;;;21.00;12.20;;;;;;;8.77;88.56;98533.70;78452;1301;3051146;-68
2023/11/16 06:10:19;;;;;;;18.80;11.70;;;;;;;8.19;90.09;98540.15;79626;1301;3012638;-68
2023/11/16 06:12:46;;;;;;;23.90;12.60;;;;;;;8.00;91.97;98537.73;79698;1300;3013799;-67
2023/11/16 06:15:15;;;;;;;15.30;9.60;;;;;;;7.98;92.20;98536.79;78421;1295;3056079;-67
2023/11/16 06:17:42;;;;;;;18.10;11.70;;;;;;;8.49;91.05;98536.95;79682;1298;3019520;-69
2023/11/16 06:20:13;;;;;;;20.20;11.70;;;;;;;8.69;88.88;98536.51;79819;1296;3011780;-68
2023/11/16 06:22:41;;;;;;;21.30;12.50;;;;;;;8.47;89.97;98532.44;78505;1299;3052179;-69
2023/11/16 06:25:10;;;;;;;21.00;11.70;;;;;;;8.28;90.74;98530.84;79714;1300;3013221;-69
2023/11/16 06:27:37;;;;;;;19.80;11.40;;;;;;;8.19;91.19;98529.67;79627;1301;3012952;-69
2023/11/16 06:30:08;;;;;;;20.60;11.50;;;;;;;7.93;92.90;98535.92;78291;1296;3058182;-68
2023/11/16 06:32:36;;;;;;;16.60;8.60;;;;;;;7.75;93.97;98538.42;79767;1298;3011916;-68
2023/11/16 06:35:04;;;;;;;18.50;10.90;;;;;;;8.13;93.45;98537.74;78310;1295;3052541;-68
2023/11/16 06:37:34;;;;;;;20.20;10.10;;;;;;;8.44;91.53;98528.11;79744;1298;3013329;-69
2023/11/16 06:40:05;;;;;;;18.50;11.90;;;;;;;8.59;90.18;98535.31;79124;1301;3011997;-67
2023/11/16 06:42:36;;;;;;;24.10;13.20;;;;;;;8.47;90.42;98531.91;79683;1298;3011422;-68
2023/11/16 06:45:05;;;;;;;19.90;11.50;;;;;;;8.43;90.11;98539.81;78530;1295;3069593;-68
2023/11/16 06:47:33;;;;;;;17.40;11.30;;;;;;;7.98;92.04;98546.60;79651;1300;3012962;-68
2023/11/16 06:50:03;;;;;;;15.10;9.20;;;;;;;7.73;93.88;98546.92;79161;1295;3011781;-68
2023/11/16 06:52:30;;;;;;;16.40;10.00;;;;;;;8.04;93.65;98559.77;79527;1298;3014293;-69
2023/11/16 06:54:57;;;;;;;17.10;11.00;;;;;;;8.30;92.55;98552.71;79603;1298;3013022;-69
2023/11/16 06:57:26;;;;;;;14.90;8.10;;;;;;;8.28;91.93;98559.13;78632;1298;3052181;-70
2023/11/16 06:59:53;;;;;;;19.40;11.50;;;;;;;8.04;92.15;98562.58;79745;1299;3013351;-69
2023/11/16 07:02:21;;;;;;;16.50;11.40;;;;;;;7.66;94.22;98567.42;79775;1299;3013505;-68
2023/11/16 07:04:49;;;;;;;24.80;13.40;;;;;;;7.63;95.24;98563.45;78579;1296;3056729;-69
2023/11/16 07:07:16;;;;;;;18.20;10.60;;;;;;;7.80;94.36;98564.27;79721;1296;3018956;-67
2023/11/16 07:09:46;;;;;;;18.00;11.50;;;;;;;8.41;93.24;98562.61;79737;1296;3011631;-68
2023/11/16 07:12:20;;;;;;;15.40;10.10;;;;;;;8.75;90.23;98560.20;78588;1298;3051900;-69
2023/11/16 07:14:51;;;;;;;16.10;10.20;;;;;;;8.92;89.08;98559.77;79586;1298;3012116;-72
2023/11/16 07:17:19;;;;;;;25.40;15.00;;;;;;;8.69;89.84;98556.83;78537;1296;3068314;-68
2023/11/16 07:19:47;;;;;;;28.80;17.90;;;;;;;8.51;90.58;98556.23;79893;1302;3013304;-75
2023/11/16 07:22:14;;;;;;;22.00;14.30;;;;;;;8.43;90.94;98559.53;79697;1302;3011614;-76
2023/11/16 07:24:43;;;;;;;18.30;10.30;;;;;;;8.42;91.11;98558.75;78587;1295;3052716;-74
2023/11/16 07:27:11;;;;;;;16.80;9.30;;;;;;;8.96;89.87;98555.48;79877;1298;3011602;-70
2023/11/16 07:29:42;;;;;;;19.90;10.90;;;;;;;9.42;86.38;98557.04;79138;1298;3011688;-68
2023/11/16 07:32:11;;;;;;;17.80;10.50;;;;;;;9.26;86.48;98557.94;79637;1298;3011635;-68
2023/11/16 07:34:40;;;;;;;23.40;12.70;;;;;;;9.16;86.25;98565.27;78609;1300;3027387;-68
2023/11/16 07:37:07;;;;;;;27.10;14.10;;;;;;;8.72;87.52;98567.07;79732;1296;3013050;-68
2023/11/16 07:39:34;;;;;;;39.90;19.30;;;;;;;8.37;89.64;98569.16;79682;1300;3011521;-67
2023/11/16 07:42:02;;;;;;;53.00;25.70;;;;;;;8.30;90.51;98568.22;78324;1299;3052036;-69
2023/11/16 07:44:29;;;;;;;30.40;15.00;;;;;;;8.22;91.15;98567.73;79616;1302;3020635;-70
2023/11/16 07:46:55;;;;;;;25.00;12.80;;;;;;;8.73;90.35;98564.88;79723;1298;3011846;-67
2023/11/16 07:49:24;;;;;;;21.50;11.10;;;;;;;9.22;88.13;98571.89;78454;1294;3026457;-69
2023/11/16 07:51:54;;;;;;;20.80;10.10;;;;;;;9.50;86.22;98571.37;79595;1295;3013840;-69
2023/11/16 07:54:22;;;;;;;22.00;11.70;;;;;;;9.26;85.60;98569.00;78477;1295;3049589;-68
2023/11/16 07:56:52;;;;;;;20.90;12.60;;;;;;;8.87;86.95;98568.33;79738;1295;3018987;-67
2023/11/16 07:59:31;;;;;;;19.00;11.10;;;;;;;8.66;87.29;98562.90;79193;1295;3013560;-68
2023/11/16 08:02:00;;;;;;;17.30;9.40;;;;;;;8.41;89.14;98567.17;78300;1302;3051737;-69
2023/11/16 08:04:27;;;;;;;17.20;9.90;;;;;;;8.87;88.33;98556.12;79777;1304;3012900;-72
2023/11/16 08:06:54;;;;;;;16.50;10.40;;;;;;;9.30;87.20;98556.83;79632;1295;3013533;-67
2023/11/16 08:09:29;;;;;;;18.70;12.00;;;;;;;9.36;86.28;98558.52;78566;1299;3055734;-69
2023/11/16 08:11:56;;;;;;;18.40;10.80;;;;;;;9.25;86.02;98552.27;79806;1296;3011858;-70
2023/11/16 08:14:24;;;;;;;20.00;11.60;;;;;;;9.21;86.07;98555.38;78385;1298;3053588;-67
2023/11/16 08:16:56;;;;;;;22.50;11.90;;;;;;;8.97;86.43;98552.44;79562;1295;3013594;-69
2023/11/16 08:19:31;;;;;;;16.80;10.60;;;;;;;8.70;88.25;98558.30;78411;1299;3052200;-71
2023/11/16 08:22:01;;;;;;;26.80;13.20;;;;;;;9.42;87.84;98560.35;79057;1295;3011791;-70
2023/11/16 08:24:28;;;;;;;19.90;11.90;;;;;;;9.69;85.33;98565.16;79679;1296;3013877;-69
2023/11/16 08:26:57;;;;;;;23.80;13.20;;;;;;;9.51;85.39;98570.23;79668;1300;3011618;-70
2023/11/16 08:29:25;;;;;;;18.70;11.70;;;;;;;9.57;85.22;98572.10;78614;1301;3048677;-69
2023/11/16 08:31:56;;;;;;;21.50;12.40;;;;;;;9.24;86.10;98569.34;79755;1301;3014093;-67
2023/11/16 08:34:26;;;;;;;21.90;11.60;;;;;;;9.16;86.80;98574.20;78445;1301;3053958;-72
2023/11/16 08:36:53;;;;;;;21.40;11.80;;;;;;;8.96;87.64;98581.00;79592;1299;3011949;-71
2023/11/16 08:39:22;;;;;;;17.90;10.40;;;;;;;9.04;88.01;98571.74;79211;1295;3011611;-72
2023/11/16 08:41:49;;;;;;;17.30;10.90;;;;;;;9.66;86.76;98570.55;79641;1298;3013081;-70
2023/11/16 08:44:16;;;;;;;15.30;9.30;;;;;;;10.23;84.19;98562.29;79536;1298;3012337;-74
2023/11/16 08:46:46;;;;;;;15.40;9.90;;;;;;;10.41;82.15;98566.76;78280;1295;3053576;-69
2023/11/16 08:49:12;;;;;;;16.40;11.10;;;;;;;10.08;82.85;98570.04;79621;1301;3012907;-72
2023/11/16 08:51:39;;;;;;;18.70;10.80;;;;;;;9.99;83.46;98560.56;79697;1305;3011636;-69
2023/11/16 08:54:08;;;;;;;22.40;11.10;;;;;;;9.71;84.15;98573.17;78422;1300;3068342;-71
2023/11/16 08:56:35;;;;;;;18.20;10.50;;;;;;;9.66;84.41;98571.63;79731;1295;3012682;-69
2023/11/16 08:59:07;;;;;;;20.30;10.50;;;;;;;9.82;84.07;98570.66;79561;1296;3011854;-69
2023/11/16 09:01:37;;;;;;;16.60;10.30;;;;;;;10.24;83.17;98563.93;78340;1301;3052860;-69
2023/11/16 09:04:05;;;;;;;15.30;10.00;;;;;;;10.42;82.51;98558.14;79565;1295;3013512;-68
2023/11/16 09:06:34;;;;;;;18.40;9.90;;;;;;;10.45;81.88;98555.48;79071;1300;3011655;-70
2023/11/16 09:09:09;;;;;;;18.40;10.00;;;;;;;10.50;81.68;98553.88;79634;1300;3018399;-68
2023/11/16 09:11:37;;;;;;;14.70;9.80;;;;;;;10.50;81.16;98545.12;78497;1300;3050819;-71
2023/11/16 09:14:08;;;;;;;18.60;10.30;;;;;;;10.25;82.09;98553.00;79829;1300;3013420;-69
2023/11/16 09:16:36;;;;;;;16.00;8.20;;;;;;;10.28;82.37;98552.10;78354;1296;3052905;-69
2023/11/16 09:19:07;;;;;;;18.40;10.50;;;;;;;10.67;81.71;98544.70;79555;1301;3013352;-70
2023/11/16 09:21:35;;;;;;;15.30;10.20;;;;;;;11.26;79.73;98548.92;78384;1302;3053603;-68
2023/11/16 09:24:05;;;;;;;16.70;9.30;;;;;;;11.31;77.74;98543.79;79760;1301;3018347;-69
2023/11/16 09:26:34;;;;;;;14.00;9.20;;;;;;;11.28;78.00;98537.41;79093;1295;3014384;-68
2023/11/16 09:29:02;;;;;;;22.20;10.20;;;;;;;11.01;78.79;98538.61;79763;1294;3020085;-68
2023/11/16 09:31:29;;;;;;;19.80;9.80;;;;;;;10.68;79.67;98543.02;79694;1296;3012824;-68
2023/11/16 09:33:57;;;;;;;15.90;9.40;;;;;;;10.67;80.06;98545.08;78577;1301;3050518;-70
2023/11/16 09:36:27;;;;;;;19.70;9.40;;;;;;;10.51;80.16;98539.20;79700;1300;3018719;-68
2023/11/16 09:38:57;;;;;;;15.70;9.30;;;;;;;10.40;81.08;98540.57;79689;1295;3013608;-70
2023/11/16 09:41:25;;;;;;;16.50;10.00;;;;;;;10.97;80.39;98538.69;78437;1301;3051660;-69
2023/11/16 09:43:54;;;;;;;10.50;6.40;;;;;;;11.37;77.63;98536.17;79647;1301;3013041;-69
2023/11/16 09:46:25;;;;;;;10.70;7.40;;;;;;;11.54;76.49;98533.39;79171;1295;3011789;-70
2023/11/16 09:48:53;;;;;;;11.90;7.40;;;;;;;11.25;76.60;98528.02;79703;1301;3015659;-69
2023/11/16 09:51:23;;;;;;;13.80;8.20;;;;;;;11.04;77.72;98523.64;79190;1298;3011613;-70
2023/11/16 09:53:50;;;;;;;16.20;8.60;;;;;;;10.76;79.14;98532.44;79627;1298;3013800;-67
2023/11/16 09:56:20;;;;;;;11.90;7.50;;;;;;;10.66;78.96;98537.60;79644;1295;3011559;-69
2023/11/16 09:58:53;;;;;;;13.70;7.80;;;;;;;10.28;80.35;98538.30;78509;1295;3050484;-69
2023/11/16 10:01:20;;;;;;;11.60;7.50;;;;;;;10.10;81.86;98536.11;79659;1296;3011634;-68
2023/11/16 10:03:48;;;;;;;9.10;4.90;;;;;;;10.16;81.72;98536.85;78472;1301;3051173;-68
2023/11/16 10:06:20;;;;;;;9.20;5.20;;;;;;;10.75;80.27;98535.66;79638;1296;3013465;-68
2023/11/16 10:08:53;;;;;;;12.00;5.30;;;;;;;11.22;78.30;98529.60;78364;1300;3051278;-69
2023/11/16 10:11:23;;;;;;;10.70;6.00;;;;;;;11.28;77.50;98531.58;79560;1300;3013060;-68
2023/11/16 10:13:54;;;;;;;9.40;6.00;;;;;;;11.02;78.13;98530.60;78281;1300;3069135;-68
2023/11/16 10:16:24;;;;;;;8.60;5.80;;;;;;;10.86;78.32;98539.42;79554;1295;3011446;-68
2023/11/16 10:19:10;;;;;;;12.30;6.00;;;;;;;10.49;79.70;98539.38;78363;1295;3057125;-68
2023/11/16 10:21:39;;;;;;;12.10;6.80;;;;;;;10.23;80.79;98539.71;78537;1298;3050068;-70
2023/11/16 10:24:09;;;;;;;8.40;5.30;;;;;;;10.12;81.42;98535.75;79694;1301;3014051;-68
2023/11/16 10:26:38;;;;;;;7.30;4.70;;;;;;;9.95;82.89;98544.15;78345;1295;3026693;-68
2023/11/16 10:29:06;;;;;;;13.50;5.60;;;;;;;10.45;82.34;98536.00;79680;1297;3013909;-69
2023/11/16 10:31:33;;;;;;;9.40;5.10;;;;;;;10.94;80.59;98538.40;79710;1295;3011803;-68
2023/11/16 10:34:05;;;;;;;9.20;5.60;;;;;;;10.89;80.05;98532.14;78414;1301;3051206;-68
2023/11/16 10:36:32;;;;;;;11.00;6.00;;;;;;;10.66;80.67;98529.34;79615;1295;3012780;-68
2023/11/16 10:39:02;;;;;;;9.80;6.20;;;;;;;10.60;80.34;98527.72;79190;1295;3011800;-68
2023/11/16 10:41:29;;;;;;;15.20;6.10;;;;;;;10.24;81.71;98535.73;77002;1296;6572286;-68
2023/11/16 10:43:56;;;;;;;13.00;6.00;;;;;;;10.15;81.68;98538.54;79794;1295;3011651;-68
2023/11/16 10:46:27;;;;;;;10.00;6.00;;;;;;;10.06;82.27;98535.38;78330;1300;3053019;-69
2023/11/16 10:48:53;;;;;;;9.90;5.40;;;;;;;9.97;83.04;98538.80;79639;1296;3013056;-69
2023/11/16 10:51:23;;;;;;;11.20;6.10;;;;;;;10.54;83.01;98534.23;79164;1294;3011674;-70
2023/11/16 10:53:52;;;;;;;13.40;5.90;;;;;;;11.08;80.39;98536.48;79558;1295;3013033;-69
2023/11/16 10:56:18;;;;;;;10.50;6.20;;;;;;;10.87;80.08;98535.86;79693;1295;3011620;-68
2023/11/16 10:58:47;;;;;;;10.50;6.00;;;;;;;10.65;80.95;98536.06;78439;1298;3048800;-69
2023/11/16 11:01:19;;;;;;;13.00;5.80;;;;;;;10.51;81.30;98541.52;79509;1295;3014215;-69
2023/11/16 11:03:48;;;;;;;9.00;4.60;;;;;;;10.26;82.15;98543.67;78508;1298;3054708;-68
2023/11/16 11:06:18;;;;;;;9.10;5.50;;;;;;;9.97;83.88;98538.67;79738;1295;3012933;-68
2023/11/16 11:08:48;;;;;;;6.10;4.10;;;;;;;9.96;84.71;98538.36;78373;1294;3055814;-67
2023/11/16 11:11:24;;;;;;;9.30;5.10;;;;;;;10.45;83.34;98537.71;79616;1295;3013628;-68
2023/11/16 11:13:54;;;;;;;6.40;4.30;;;;;;;10.92;81.27;98531.92;78373;1296;3053256;-69
2023/11/16 11:16:25;;;;;;;9.40;5.90;;;;;;;10.83;81.05;98537.17;79788;1297;3012877;-68
2023/11/16 11:18:53;;;;;;;9.50;5.60;;;;;;;10.51;82.13;98533.64;78545;1294;3051654;-71